sensor_id;sensor_type;location;lat;lon;timestamp;P1;durP1;ratioP1;P2;durP2;ratioP2
38805;SDS011;25635;51.146;17.162;2023-10-08T00:01:15;3.20;;;0.60;;
38805;SDS011;25635;51.146;17.162;2023-10-08T00:03:44;3.30;;;0.80;;
38805;SDS011;25635;51.146;17.162;2023-10-08T00:06:19;2.50;;;0.60;;
38805;SDS011;25635;51.146;17.162;2023-10-08T00:08:50;2.80;;;0.50;;
38805;SDS011;25635;51.146;17.162;2023-10-08T00:11:16;1.90;;;0.40;;
38805;SDS011;25635;51.146;17.162;2023-10-08T00:13:43;3.20;;;0.50;;
38805;SDS011;25635;51.146;17.162;2023-10-08T00:16:11;1.60;;;0.40;;
38805;SDS011;25635;51.146;17.162;2023-10-08T00:18:41;1.80;;;0.40;;
38805;SDS011;25635;51.146;17.162;2023-10-08T00:21:14;5.70;;;0.30;;
38805;SDS011;25635;51.146;17.162;2023-10-08T00:23:41;3.20;;;0.50;;
38805;SDS011;25635;51.146;17.162;2023-10-08T00:26:09;2.10;;;0.50;;
38805;SDS011;25635;51.146;17.162;2023-10-08T00:28:35;1.60;;;0.40;;
38805;SDS011;25635;51.146;17.162;2023-10-08T00:31:01;1.40;;;0.40;;
38805;SDS011;25635;51.146;17.162;2023-10-08T00:33:38;1.80;;;0.30;;
38805;SDS011;25635;51.146;17.162;2023-10-08T00:36:10;2.80;;;0.50;;
38805;SDS011;25635;51.146;17.162;2023-10-08T00:38:46;2.10;;;0.60;;
38805;SDS011;25635;51.146;17.162;2023-10-08T00:41:17;2.60;;;0.70;;
38805;SDS011;25635;51.146;17.162;2023-10-08T00:43:50;2.40;;;0.50;;
38805;SDS011;25635;51.146;17.162;2023-10-08T00:46:17;2.20;;;0.50;;
38805;SDS011;25635;51.146;17.162;2023-10-08T00:48:49;1.30;;;0.30;;
38805;SDS011;25635;51.146;17.162;2023-10-08T00:51:23;2.60;;;0.50;;
38805;SDS011;25635;51.146;17.162;2023-10-08T00:54:00;2.20;;;0.60;;
38805;SDS011;25635;51.146;17.162;2023-10-08T00:56:32;2.30;;;0.50;;
38805;SDS011;25635;51.146;17.162;2023-10-08T00:59:18;2.10;;;0.40;;
38805;SDS011;25635;51.146;17.162;2023-10-08T01:01:48;2.20;;;0.50;;
38805;SDS011;25635;51.146;17.162;2023-10-08T01:04:24;3.70;;;0.70;;
38805;SDS011;25635;51.146;17.162;2023-10-08T01:09:41;2.30;;;0.40;;
38805;SDS011;25635;51.146;17.162;2023-10-08T01:14:44;2.30;;;0.50;;
38805;SDS011;25635;51.146;17.162;2023-10-08T01:17:13;1.90;;;0.40;;
38805;SDS011;25635;51.146;17.162;2023-10-08T01:19:45;1.60;;;0.40;;
38805;SDS011;25635;51.146;17.162;2023-10-08T01:22:37;2.10;;;0.50;;
38805;SDS011;25635;51.146;17.162;2023-10-08T01:25:04;1.80;;;0.50;;
38805;SDS011;25635;51.146;17.162;2023-10-08T01:27:31;2.50;;;0.50;;
38805;SDS011;25635;51.146;17.162;2023-10-08T01:30:00;1.60;;;0.50;;
38805;SDS011;25635;51.146;17.162;2023-10-08T01:32:45;4.80;;;0.60;;
38805;SDS011;25635;51.146;17.162;2023-10-08T01:35:12;2.00;;;0.60;;
38805;SDS011;25635;51.146;17.162;2023-10-08T01:37:50;1.70;;;0.60;;
38805;SDS011;25635;51.146;17.162;2023-10-08T01:40:17;2.60;;;0.80;;
38805;SDS011;25635;51.146;17.162;2023-10-08T01:42:43;2.70;;;0.70;;
38805;SDS011;25635;51.146;17.162;2023-10-08T01:45:09;3.20;;;0.80;;
38805;SDS011;25635;51.146;17.162;2023-10-08T01:47:38;2.90;;;0.70;;
38805;SDS011;25635;51.146;17.162;2023-10-08T01:50:05;4.10;;;1.00;;
38805;SDS011;25635;51.146;17.162;2023-10-08T01:52:37;3.50;;;0.80;;
38805;SDS011;25635;51.146;17.162;2023-10-08T01:55:06;2.80;;;0.60;;
38805;SDS011;25635;51.146;17.162;2023-10-08T01:57:36;4.40;;;0.90;;
38805;SDS011;25635;51.146;17.162;2023-10-08T02:00:04;3.40;;;0.80;;
38805;SDS011;25635;51.146;17.162;2023-10-08T02:02:32;4.90;;;1.00;;
38805;SDS011;25635;51.146;17.162;2023-10-08T02:04:59;4.10;;;0.70;;
38805;SDS011;25635;51.146;17.162;2023-10-08T02:07:25;3.80;;;0.70;;
38805;SDS011;25635;51.146;17.162;2023-10-08T02:09:51;6.50;;;1.20;;
38805;SDS011;25635;51.146;17.162;2023-10-08T02:12:18;3.80;;;0.80;;
38805;SDS011;25635;51.146;17.162;2023-10-08T02:14:44;3.40;;;0.80;;
38805;SDS011;25635;51.146;17.162;2023-10-08T02:17:10;3.70;;;0.80;;
38805;SDS011;25635;51.146;17.162;2023-10-08T02:19:38;4.90;;;1.10;;
38805;SDS011;25635;51.146;17.162;2023-10-08T02:22:07;4.70;;;1.20;;
38805;SDS011;25635;51.146;17.162;2023-10-08T02:24:36;4.00;;;0.90;;
38805;SDS011;25635;51.146;17.162;2023-10-08T02:27:03;3.80;;;1.00;;
38805;SDS011;25635;51.146;17.162;2023-10-08T02:29:30;3.20;;;0.90;;
38805;SDS011;25635;51.146;17.162;2023-10-08T02:31:57;4.70;;;0.70;;
38805;SDS011;25635;51.146;17.162;2023-10-08T02:34:23;4.20;;;1.00;;
38805;SDS011;25635;51.146;17.162;2023-10-08T02:36:49;5.80;;;1.20;;
38805;SDS011;25635;51.146;17.162;2023-10-08T02:39:15;4.90;;;1.10;;
38805;SDS011;25635;51.146;17.162;2023-10-08T02:41:48;4.40;;;1.00;;
38805;SDS011;25635;51.146;17.162;2023-10-08T02:44:18;7.00;;;1.20;;
38805;SDS011;25635;51.146;17.162;2023-10-08T02:46:47;4.30;;;1.10;;
38805;SDS011;25635;51.146;17.162;2023-10-08T02:49:15;8.50;;;1.00;;
38805;SDS011;25635;51.146;17.162;2023-10-08T02:51:51;4.90;;;1.30;;
38805;SDS011;25635;51.146;17.162;2023-10-08T02:54:20;3.90;;;1.00;;
38805;SDS011;25635;51.146;17.162;2023-10-08T02:56:49;4.80;;;1.00;;
38805;SDS011;25635;51.146;17.162;2023-10-08T02:59:33;5.30;;;1.00;;
38805;SDS011;25635;51.146;17.162;2023-10-08T03:02:05;5.90;;;1.10;;
38805;SDS011;25635;51.146;17.162;2023-10-08T03:04:40;3.80;;;0.70;;
38805;SDS011;25635;51.146;17.162;2023-10-08T03:07:08;3.70;;;0.80;;
38805;SDS011;25635;51.146;17.162;2023-10-08T03:09:37;4.10;;;0.90;;
38805;SDS011;25635;51.146;17.162;2023-10-08T03:12:08;2.50;;;0.60;;
38805;SDS011;25635;51.146;17.162;2023-10-08T03:14:34;3.60;;;0.60;;
38805;SDS011;25635;51.146;17.162;2023-10-08T03:17:13;2.60;;;0.60;;
38805;SDS011;25635;51.146;17.162;2023-10-08T03:19:48;4.20;;;0.60;;
38805;SDS011;25635;51.146;17.162;2023-10-08T03:22:14;3.70;;;0.90;;
38805;SDS011;25635;51.146;17.162;2023-10-08T03:24:45;3.30;;;0.80;;
38805;SDS011;25635;51.146;17.162;2023-10-08T03:27:13;3.50;;;0.70;;
38805;SDS011;25635;51.146;17.162;2023-10-08T03:29:46;3.90;;;0.80;;
38805;SDS011;25635;51.146;17.162;2023-10-08T03:32:13;3.60;;;0.60;;
38805;SDS011;25635;51.146;17.162;2023-10-08T03:34:43;5.60;;;0.90;;
38805;SDS011;25635;51.146;17.162;2023-10-08T03:37:15;4.40;;;0.90;;
38805;SDS011;25635;51.146;17.162;2023-10-08T03:39:46;2.80;;;0.70;;
38805;SDS011;25635;51.146;17.162;2023-10-08T03:42:23;3.20;;;0.80;;
38805;SDS011;25635;51.146;17.162;2023-10-08T03:44:50;3.30;;;0.80;;
38805;SDS011;25635;51.146;17.162;2023-10-08T03:47:18;2.80;;;0.70;;
38805;SDS011;25635;51.146;17.162;2023-10-08T03:49:48;4.30;;;0.80;;
38805;SDS011;25635;51.146;17.162;2023-10-08T03:52:16;4.80;;;0.70;;
38805;SDS011;25635;51.146;17.162;2023-10-08T03:54:48;3.70;;;0.80;;
38805;SDS011;25635;51.146;17.162;2023-10-08T03:57:14;2.70;;;0.70;;
38805;SDS011;25635;51.146;17.162;2023-10-08T03:59:50;2.90;;;0.70;;
38805;SDS011;25635;51.146;17.162;2023-10-08T04:02:20;5.70;;;1.70;;
38805;SDS011;25635;51.146;17.162;2023-10-08T04:04:57;3.40;;;0.80;;
38805;SDS011;25635;51.146;17.162;2023-10-08T04:07:23;5.10;;;0.80;;
38805;SDS011;25635;51.146;17.162;2023-10-08T04:09:55;3.60;;;0.90;;
38805;SDS011;25635;51.146;17.162;2023-10-08T04:12:35;4.60;;;0.80;;
38805;SDS011;25635;51.146;17.162;2023-10-08T04:15:05;3.80;;;0.80;;
38805;SDS011;25635;51.146;17.162;2023-10-08T04:17:38;3.70;;;0.80;;
38805;SDS011;25635;51.146;17.162;2023-10-08T04:20:16;3.90;;;0.70;;
38805;SDS011;25635;51.146;17.162;2023-10-08T04:22:59;4.50;;;1.00;;
38805;SDS011;25635;51.146;17.162;2023-10-08T04:25:26;3.90;;;0.90;;
38805;SDS011;25635;51.146;17.162;2023-10-08T04:27:55;4.40;;;1.10;;
38805;SDS011;25635;51.146;17.162;2023-10-08T04:30:32;4.30;;;0.90;;
38805;SDS011;25635;51.146;17.162;2023-10-08T04:32:59;5.00;;;1.00;;
38805;SDS011;25635;51.146;17.162;2023-10-08T04:35:46;4.70;;;1.00;;
38805;SDS011;25635;51.146;17.162;2023-10-08T04:38:21;4.10;;;1.10;;
38805;SDS011;25635;51.146;17.162;2023-10-08T04:40:52;3.80;;;0.90;;
38805;SDS011;25635;51.146;17.162;2023-10-08T04:43:19;4.00;;;1.20;;
38805;SDS011;25635;51.146;17.162;2023-10-08T04:45:59;6.30;;;1.10;;
38805;SDS011;25635;51.146;17.162;2023-10-08T04:48:45;5.40;;;1.00;;
38805;SDS011;25635;51.146;17.162;2023-10-08T04:51:12;5.10;;;1.10;;
38805;SDS011;25635;51.146;17.162;2023-10-08T04:53:41;6.10;;;1.40;;
38805;SDS011;25635;51.146;17.162;2023-10-08T04:56:10;4.30;;;1.00;;
38805;SDS011;25635;51.146;17.162;2023-10-08T04:58:43;4.80;;;1.10;;
38805;SDS011;25635;51.146;17.162;2023-10-08T05:01:13;3.60;;;0.80;;
38805;SDS011;25635;51.146;17.162;2023-10-08T05:03:53;5.50;;;1.10;;
38805;SDS011;25635;51.146;17.162;2023-10-08T05:06:20;6.20;;;1.20;;
38805;SDS011;25635;51.146;17.162;2023-10-08T05:09:06;5.80;;;1.00;;
38805;SDS011;25635;51.146;17.162;2023-10-08T05:11:44;8.90;;;1.20;;
38805;SDS011;25635;51.146;17.162;2023-10-08T05:14:23;5.60;;;1.30;;
38805;SDS011;25635;51.146;17.162;2023-10-08T05:19:29;5.40;;;1.40;;
38805;SDS011;25635;51.146;17.162;2023-10-08T05:22:15;4.00;;;1.10;;
38805;SDS011;25635;51.146;17.162;2023-10-08T05:24:54;6.20;;;2.30;;
38805;SDS011;25635;51.146;17.162;2023-10-08T05:27:40;5.50;;;1.30;;
38805;SDS011;25635;51.146;17.162;2023-10-08T05:30:14;6.50;;;1.90;;
38805;SDS011;25635;51.146;17.162;2023-10-08T05:32:42;5.00;;;1.40;;
38805;SDS011;25635;51.146;17.162;2023-10-08T05:38:04;4.30;;;1.70;;
38805;SDS011;25635;51.146;17.162;2023-10-08T05:40:41;6.80;;;2.20;;
38805;SDS011;25635;51.146;17.162;2023-10-08T05:43:30;7.70;;;1.70;;
38805;SDS011;25635;51.146;17.162;2023-10-08T05:46:10;6.30;;;1.60;;
38805;SDS011;25635;51.146;17.162;2023-10-08T05:49:03;7.20;;;2.20;;
38805;SDS011;25635;51.146;17.162;2023-10-08T05:51:33;7.40;;;2.40;;
38805;SDS011;25635;51.146;17.162;2023-10-08T05:54:13;7.40;;;2.60;;
38805;SDS011;25635;51.146;17.162;2023-10-08T05:56:53;5.10;;;2.40;;
38805;SDS011;25635;51.146;17.162;2023-10-08T05:59:38;7.10;;;3.40;;
38805;SDS011;25635;51.146;17.162;2023-10-08T06:05:03;7.30;;;3.60;;
38805;SDS011;25635;51.146;17.162;2023-10-08T06:10:18;9.80;;;3.80;;
38805;SDS011;25635;51.146;17.162;2023-10-08T06:15:51;7.90;;;3.40;;
38805;SDS011;25635;51.146;17.162;2023-10-08T06:18:22;9.00;;;3.60;;
38805;SDS011;25635;51.146;17.162;2023-10-08T06:21:02;9.50;;;3.30;;
38805;SDS011;25635;51.146;17.162;2023-10-08T06:23:36;9.00;;;3.50;;
38805;SDS011;25635;51.146;17.162;2023-10-08T06:26:04;7.10;;;3.30;;
38805;SDS011;25635;51.146;17.162;2023-10-08T06:28:50;6.40;;;2.90;;
38805;SDS011;25635;51.146;17.162;2023-10-08T06:31:22;9.20;;;3.20;;
38805;SDS011;25635;51.146;17.162;2023-10-08T06:33:50;8.00;;;3.10;;
38805;SDS011;25635;51.146;17.162;2023-10-08T06:36:16;8.90;;;3.60;;
38805;SDS011;25635;51.146;17.162;2023-10-08T06:38:43;8.10;;;3.00;;
38805;SDS011;25635;51.146;17.162;2023-10-08T06:41:14;10.20;;;3.10;;
38805;SDS011;25635;51.146;17.162;2023-10-08T06:43:44;8.50;;;3.30;;
38805;SDS011;25635;51.146;17.162;2023-10-08T06:46:18;6.60;;;3.00;;
38805;SDS011;25635;51.146;17.162;2023-10-08T06:48:47;6.70;;;2.80;;
38805;SDS011;25635;51.146;17.162;2023-10-08T06:51:15;7.20;;;2.80;;
38805;SDS011;25635;51.146;17.162;2023-10-08T06:53:45;7.70;;;2.80;;
38805;SDS011;25635;51.146;17.162;2023-10-08T06:56:15;8.60;;;2.70;;
38805;SDS011;25635;51.146;17.162;2023-10-08T06:58:43;7.50;;;2.70;;
38805;SDS011;25635;51.146;17.162;2023-10-08T07:01:19;6.50;;;3.10;;
38805;SDS011;25635;51.146;17.162;2023-10-08T07:03:54;7.40;;;2.80;;
38805;SDS011;25635;51.146;17.162;2023-10-08T07:06:29;8.50;;;3.00;;
38805;SDS011;25635;51.146;17.162;2023-10-08T07:08:59;8.40;;;2.40;;
38805;SDS011;25635;51.146;17.162;2023-10-08T07:11:33;6.30;;;2.50;;
38805;SDS011;25635;51.146;17.162;2023-10-08T07:14:03;4.70;;;2.20;;
38805;SDS011;25635;51.146;17.162;2023-10-08T07:16:30;5.50;;;1.90;;
38805;SDS011;25635;51.146;17.162;2023-10-08T07:19:00;5.30;;;2.10;;
38805;SDS011;25635;51.146;17.162;2023-10-08T07:21:41;6.10;;;2.00;;
38805;SDS011;25635;51.146;17.162;2023-10-08T07:24:11;6.40;;;2.30;;
38805;SDS011;25635;51.146;17.162;2023-10-08T07:26:43;7.80;;;2.20;;
38805;SDS011;25635;51.146;17.162;2023-10-08T07:29:13;5.10;;;1.60;;
38805;SDS011;25635;51.146;17.162;2023-10-08T07:31:45;7.50;;;1.80;;
38805;SDS011;25635;51.146;17.162;2023-10-08T07:34:15;6.10;;;2.00;;
38805;SDS011;25635;51.146;17.162;2023-10-08T07:36:43;6.30;;;1.60;;
38805;SDS011;25635;51.146;17.162;2023-10-08T07:39:13;5.20;;;1.20;;
38805;SDS011;25635;51.146;17.162;2023-10-08T07:42:00;5.10;;;1.50;;
38805;SDS011;25635;51.146;17.162;2023-10-08T07:44:31;4.10;;;1.00;;
38805;SDS011;25635;51.146;17.162;2023-10-08T07:46:57;5.10;;;1.10;;
38805;SDS011;25635;51.146;17.162;2023-10-08T07:49:24;4.20;;;0.80;;
38805;SDS011;25635;51.146;17.162;2023-10-08T07:51:56;4.00;;;1.10;;
38805;SDS011;25635;51.146;17.162;2023-10-08T07:54:24;4.50;;;1.10;;
38805;SDS011;25635;51.146;17.162;2023-10-08T07:56:53;6.40;;;1.40;;
38805;SDS011;25635;51.146;17.162;2023-10-08T07:59:38;4.40;;;1.10;;
38805;SDS011;25635;51.146;17.162;2023-10-08T08:02:08;3.50;;;1.00;;
38805;SDS011;25635;51.146;17.162;2023-10-08T08:04:38;5.50;;;1.30;;
38805;SDS011;25635;51.146;17.162;2023-10-08T08:07:12;4.90;;;1.10;;
38805;SDS011;25635;51.146;17.162;2023-10-08T08:09:51;5.80;;;1.80;;
38805;SDS011;25635;51.146;17.162;2023-10-08T08:12:24;5.20;;;1.70;;
38805;SDS011;25635;51.146;17.162;2023-10-08T08:14:51;5.20;;;1.50;;
38805;SDS011;25635;51.146;17.162;2023-10-08T08:17:18;4.40;;;1.20;;
38805;SDS011;25635;51.146;17.162;2023-10-08T08:19:48;5.30;;;1.40;;
38805;SDS011;25635;51.146;17.162;2023-10-08T08:22:19;6.20;;;1.50;;
38805;SDS011;25635;51.146;17.162;2023-10-08T08:24:47;5.80;;;1.60;;
38805;SDS011;25635;51.146;17.162;2023-10-08T08:27:21;5.80;;;1.80;;
38805;SDS011;25635;51.146;17.162;2023-10-08T08:29:53;4.20;;;1.00;;
38805;SDS011;25635;51.146;17.162;2023-10-08T08:32:21;3.60;;;1.30;;
38805;SDS011;25635;51.146;17.162;2023-10-08T08:34:49;3.70;;;0.90;;
38805;SDS011;25635;51.146;17.162;2023-10-08T08:37:18;4.70;;;0.90;;
38805;SDS011;25635;51.146;17.162;2023-10-08T08:39:48;4.80;;;0.50;;
38805;SDS011;25635;51.146;17.162;2023-10-08T08:42:14;2.90;;;0.70;;
38805;SDS011;25635;51.146;17.162;2023-10-08T08:44:47;3.50;;;0.50;;
38805;SDS011;25635;51.146;17.162;2023-10-08T08:47:19;3.00;;;0.80;;
38805;SDS011;25635;51.146;17.162;2023-10-08T08:49:50;3.50;;;1.00;;
38805;SDS011;25635;51.146;17.162;2023-10-08T08:52:20;4.30;;;1.00;;
38805;SDS011;25635;51.146;17.162;2023-10-08T08:54:48;3.90;;;0.80;;
38805;SDS011;25635;51.146;17.162;2023-10-08T08:57:15;2.30;;;0.60;;
38805;SDS011;25635;51.146;17.162;2023-10-08T08:59:55;3.30;;;0.80;;
38805;SDS011;25635;51.146;17.162;2023-10-08T09:02:24;3.60;;;0.90;;
38805;SDS011;25635;51.146;17.162;2023-10-08T09:04:50;2.50;;;0.70;;
38805;SDS011;25635;51.146;17.162;2023-10-08T09:07:19;6.00;;;1.10;;
38805;SDS011;25635;51.146;17.162;2023-10-08T09:09:49;2.10;;;0.60;;
38805;SDS011;25635;51.146;17.162;2023-10-08T09:12:18;4.90;;;0.80;;
38805;SDS011;25635;51.146;17.162;2023-10-08T09:14:46;3.60;;;0.80;;
38805;SDS011;25635;51.146;17.162;2023-10-08T09:17:13;2.40;;;0.60;;
38805;SDS011;25635;51.146;17.162;2023-10-08T09:19:42;2.30;;;0.50;;
38805;SDS011;25635;51.146;17.162;2023-10-08T09:22:11;2.30;;;0.50;;
38805;SDS011;25635;51.146;17.162;2023-10-08T09:24:38;3.50;;;0.90;;
38805;SDS011;25635;51.146;17.162;2023-10-08T09:27:09;3.00;;;0.60;;
38805;SDS011;25635;51.146;17.162;2023-10-08T09:29:44;2.30;;;0.40;;
38805;SDS011;25635;51.146;17.162;2023-10-08T09:32:12;2.70;;;0.60;;
38805;SDS011;25635;51.146;17.162;2023-10-08T09:34:49;2.90;;;0.80;;
38805;SDS011;25635;51.146;17.162;2023-10-08T09:37:19;2.70;;;0.60;;
38805;SDS011;25635;51.146;17.162;2023-10-08T09:39:48;4.20;;;0.60;;
38805;SDS011;25635;51.146;17.162;2023-10-08T09:42:17;3.10;;;0.50;;
38805;SDS011;25635;51.146;17.162;2023-10-08T09:44:47;2.20;;;0.40;;
38805;SDS011;25635;51.146;17.162;2023-10-08T09:47:15;1.60;;;0.40;;
38805;SDS011;25635;51.146;17.162;2023-10-08T09:52:24;2.60;;;0.50;;
38805;SDS011;25635;51.146;17.162;2023-10-08T09:55:00;3.40;;;0.50;;
38805;SDS011;25635;51.146;17.162;2023-10-08T09:57:29;3.90;;;0.90;;
38805;SDS011;25635;51.146;17.162;2023-10-08T09:59:55;3.10;;;0.60;;
38805;SDS011;25635;51.146;17.162;2023-10-08T10:02:23;2.40;;;0.50;;
38805;SDS011;25635;51.146;17.162;2023-10-08T10:04:53;2.70;;;0.50;;
38805;SDS011;25635;51.146;17.162;2023-10-08T10:07:21;4.30;;;1.70;;
38805;SDS011;25635;51.146;17.162;2023-10-08T10:09:51;3.20;;;0.90;;
38805;SDS011;25635;51.146;17.162;2023-10-08T10:12:20;2.60;;;0.70;;
38805;SDS011;25635;51.146;17.162;2023-10-08T10:14:54;3.30;;;0.70;;
38805;SDS011;25635;51.146;17.162;2023-10-08T10:17:22;2.20;;;0.40;;
38805;SDS011;25635;51.146;17.162;2023-10-08T10:19:54;3.40;;;0.70;;
38805;SDS011;25635;51.146;17.162;2023-10-08T10:22:31;3.40;;;0.50;;
38805;SDS011;25635;51.146;17.162;2023-10-08T10:24:58;2.00;;;0.30;;
38805;SDS011;25635;51.146;17.162;2023-10-08T10:27:29;2.80;;;0.70;;
38805;SDS011;25635;51.146;17.162;2023-10-08T10:30:01;2.70;;;0.60;;
38805;SDS011;25635;51.146;17.162;2023-10-08T10:32:38;2.30;;;0.40;;
38805;SDS011;25635;51.146;17.162;2023-10-08T10:35:05;3.80;;;0.70;;
38805;SDS011;25635;51.146;17.162;2023-10-08T10:37:32;2.40;;;0.50;;
38805;SDS011;25635;51.146;17.162;2023-10-08T10:40:07;2.80;;;0.60;;
38805;SDS011;25635;51.146;17.162;2023-10-08T10:42:38;2.70;;;0.60;;
38805;SDS011;25635;51.146;17.162;2023-10-08T10:45:13;2.50;;;0.60;;
38805;SDS011;25635;51.146;17.162;2023-10-08T10:48:04;2.00;;;0.50;;
38805;SDS011;25635;51.146;17.162;2023-10-08T10:50:48;2.60;;;0.60;;
38805;SDS011;25635;51.146;17.162;2023-10-08T10:53:36;2.50;;;0.50;;
38805;SDS011;25635;51.146;17.162;2023-10-08T10:56:13;2.60;;;0.60;;
38805;SDS011;25635;51.146;17.162;2023-10-08T10:59:01;2.30;;;0.60;;
38805;SDS011;25635;51.146;17.162;2023-10-08T11:01:47;1.90;;;0.40;;
38805;SDS011;25635;51.146;17.162;2023-10-08T11:04:18;3.00;;;0.50;;
38805;SDS011;25635;51.146;17.162;2023-10-08T11:06:45;2.10;;;0.50;;
38805;SDS011;25635;51.146;17.162;2023-10-08T11:09:24;2.20;;;0.50;;
38805;SDS011;25635;51.146;17.162;2023-10-08T11:14:39;2.30;;;0.50;;
38805;SDS011;25635;51.146;17.162;2023-10-08T11:17:12;2.10;;;0.40;;
38805;SDS011;25635;51.146;17.162;2023-10-08T11:19:41;1.50;;;0.40;;
38805;SDS011;25635;51.146;17.162;2023-10-08T11:22:14;1.80;;;0.40;;
38805;SDS011;25635;51.146;17.162;2023-10-08T11:24:45;1.80;;;0.40;;
38805;SDS011;25635;51.146;17.162;2023-10-08T11:27:15;2.40;;;0.50;;
38805;SDS011;25635;51.146;17.162;2023-10-08T11:29:48;2.60;;;0.40;;
38805;SDS011;25635;51.146;17.162;2023-10-08T11:32:22;1.80;;;0.40;;
38805;SDS011;25635;51.146;17.162;2023-10-08T11:34:56;3.00;;;0.50;;
38805;SDS011;25635;51.146;17.162;2023-10-08T11:37:29;2.60;;;0.40;;
38805;SDS011;25635;51.146;17.162;2023-10-08T11:39:56;1.80;;;0.40;;
38805;SDS011;25635;51.146;17.162;2023-10-08T11:42:25;1.80;;;0.40;;
38805;SDS011;25635;51.146;17.162;2023-10-08T11:45:06;1.80;;;0.30;;
38805;SDS011;25635;51.146;17.162;2023-10-08T11:47:55;2.50;;;0.60;;
38805;SDS011;25635;51.146;17.162;2023-10-08T11:50:25;1.80;;;0.50;;
38805;SDS011;25635;51.146;17.162;2023-10-08T11:52:57;4.20;;;0.60;;
38805;SDS011;25635;51.146;17.162;2023-10-08T11:55:31;2.90;;;0.50;;
38805;SDS011;25635;51.146;17.162;2023-10-08T11:58:02;1.20;;;0.30;;
38805;SDS011;25635;51.146;17.162;2023-10-08T12:00:39;2.20;;;0.40;;
38805;SDS011;25635;51.146;17.162;2023-10-08T12:03:17;2.70;;;0.50;;
38805;SDS011;25635;51.146;17.162;2023-10-08T12:05:45;2.00;;;0.40;;
38805;SDS011;25635;51.146;17.162;2023-10-08T12:08:14;2.00;;;0.50;;
38805;SDS011;25635;51.146;17.162;2023-10-08T12:10:45;4.00;;;0.50;;
38805;SDS011;25635;51.146;17.162;2023-10-08T12:13:12;2.50;;;0.50;;
38805;SDS011;25635;51.146;17.162;2023-10-08T12:15:39;4.70;;;0.60;;
38805;SDS011;25635;51.146;17.162;2023-10-08T12:18:07;1.50;;;0.40;;
38805;SDS011;25635;51.146;17.162;2023-10-08T12:20:52;3.00;;;0.40;;
38805;SDS011;25635;51.146;17.162;2023-10-08T12:23:19;1.50;;;0.40;;
38805;SDS011;25635;51.146;17.162;2023-10-08T12:25:54;3.60;;;0.60;;
38805;SDS011;25635;51.146;17.162;2023-10-08T12:28:25;1.70;;;0.50;;
38805;SDS011;25635;51.146;17.162;2023-10-08T12:30:53;2.10;;;0.40;;
38805;SDS011;25635;51.146;17.162;2023-10-08T12:33:22;3.10;;;0.60;;
38805;SDS011;25635;51.146;17.162;2023-10-08T12:35:52;1.90;;;0.40;;
38805;SDS011;25635;51.146;17.162;2023-10-08T12:38:19;3.40;;;0.60;;
38805;SDS011;25635;51.146;17.162;2023-10-08T12:40:52;2.10;;;0.50;;
38805;SDS011;25635;51.146;17.162;2023-10-08T12:43:22;4.00;;;0.60;;
38805;SDS011;25635;51.146;17.162;2023-10-08T12:45:53;3.10;;;0.60;;
38805;SDS011;25635;51.146;17.162;2023-10-08T12:48:23;2.10;;;0.50;;
38805;SDS011;25635;51.146;17.162;2023-10-08T12:50:52;2.60;;;0.60;;
38805;SDS011;25635;51.146;17.162;2023-10-08T12:53:31;2.10;;;0.40;;
38805;SDS011;25635;51.146;17.162;2023-10-08T12:56:05;2.90;;;0.70;;
38805;SDS011;25635;51.146;17.162;2023-10-08T12:58:34;3.20;;;1.20;;
38805;SDS011;25635;51.146;17.162;2023-10-08T13:01:07;2.30;;;0.80;;
38805;SDS011;25635;51.146;17.162;2023-10-08T13:03:35;3.20;;;0.70;;
38805;SDS011;25635;51.146;17.162;2023-10-08T13:06:07;3.30;;;0.90;;
38805;SDS011;25635;51.146;17.162;2023-10-08T13:08:41;1.90;;;0.60;;
38805;SDS011;25635;51.146;17.162;2023-10-08T13:11:07;4.20;;;1.40;;
38805;SDS011;25635;51.146;17.162;2023-10-08T13:13:36;3.20;;;1.00;;
38805;SDS011;25635;51.146;17.162;2023-10-08T13:16:03;2.80;;;0.60;;
38805;SDS011;25635;51.146;17.162;2023-10-08T13:18:33;1.80;;;0.40;;
38805;SDS011;25635;51.146;17.162;2023-10-08T13:21:03;2.10;;;0.50;;
38805;SDS011;25635;51.146;17.162;2023-10-08T13:23:31;2.00;;;0.50;;
38805;SDS011;25635;51.146;17.162;2023-10-08T13:26:01;1.60;;;0.40;;
38805;SDS011;25635;51.146;17.162;2023-10-08T13:28:30;2.90;;;0.60;;
38805;SDS011;25635;51.146;17.162;2023-10-08T13:30:59;8.60;;;5.20;;
38805;SDS011;25635;51.146;17.162;2023-10-08T13:33:38;6.80;;;3.80;;
38805;SDS011;25635;51.146;17.162;2023-10-08T13:36:05;7.90;;;3.80;;
38805;SDS011;25635;51.146;17.162;2023-10-08T13:38:35;7.00;;;2.70;;
38805;SDS011;25635;51.146;17.162;2023-10-08T13:41:05;14.50;;;5.00;;
38805;SDS011;25635;51.146;17.162;2023-10-08T13:43:48;6.30;;;2.40;;
38805;SDS011;25635;51.146;17.162;2023-10-08T13:46:19;5.80;;;2.00;;
38805;SDS011;25635;51.146;17.162;2023-10-08T13:48:48;8.90;;;3.20;;
38805;SDS011;25635;51.146;17.162;2023-10-08T13:51:17;8.60;;;2.50;;
38805;SDS011;25635;51.146;17.162;2023-10-08T13:56:18;8.70;;;3.80;;
38805;SDS011;25635;51.146;17.162;2023-10-08T13:58:55;4.80;;;1.50;;
38805;SDS011;25635;51.146;17.162;2023-10-08T14:01:32;4.00;;;1.30;;
38805;SDS011;25635;51.146;17.162;2023-10-08T14:04:00;3.60;;;1.10;;
38805;SDS011;25635;51.146;17.162;2023-10-08T14:06:35;4.70;;;1.70;;
38805;SDS011;25635;51.146;17.162;2023-10-08T14:09:03;6.50;;;3.00;;
38805;SDS011;25635;51.146;17.162;2023-10-08T14:11:46;5.30;;;2.30;;
38805;SDS011;25635;51.146;17.162;2023-10-08T14:14:13;6.10;;;3.00;;
38805;SDS011;25635;51.146;17.162;2023-10-08T14:16:42;5.10;;;2.30;;
38805;SDS011;25635;51.146;17.162;2023-10-08T14:19:11;4.50;;;2.00;;
38805;SDS011;25635;51.146;17.162;2023-10-08T14:21:39;4.10;;;1.40;;
38805;SDS011;25635;51.146;17.162;2023-10-08T14:24:26;4.00;;;1.50;;
38805;SDS011;25635;51.146;17.162;2023-10-08T14:26:57;6.00;;;2.70;;
38805;SDS011;25635;51.146;17.162;2023-10-08T14:29:29;8.80;;;4.50;;
38805;SDS011;25635;51.146;17.162;2023-10-08T14:31:55;10.30;;;5.70;;
38805;SDS011;25635;51.146;17.162;2023-10-08T14:34:23;10.10;;;5.40;;
38805;SDS011;25635;51.146;17.162;2023-10-08T14:37:16;4.40;;;1.30;;
38805;SDS011;25635;51.146;17.162;2023-10-08T14:40:00;2.70;;;0.60;;
38805;SDS011;25635;51.146;17.162;2023-10-08T14:42:47;5.50;;;2.30;;
38805;SDS011;25635;51.146;17.162;2023-10-08T14:45:25;5.80;;;2.50;;
38805;SDS011;25635;51.146;17.162;2023-10-08T14:47:56;6.10;;;3.00;;
38805;SDS011;25635;51.146;17.162;2023-10-08T14:50:23;7.60;;;3.60;;
38805;SDS011;25635;51.146;17.162;2023-10-08T14:52:56;4.80;;;2.10;;
38805;SDS011;25635;51.146;17.162;2023-10-08T14:55:23;5.30;;;2.20;;
38805;SDS011;25635;51.146;17.162;2023-10-08T14:57:49;5.70;;;2.20;;
38805;SDS011;25635;51.146;17.162;2023-10-08T15:00:19;5.40;;;2.40;;
38805;SDS011;25635;51.146;17.162;2023-10-08T15:02:51;2.90;;;1.00;;
38805;SDS011;25635;51.146;17.162;2023-10-08T15:05:20;3.40;;;0.90;;
38805;SDS011;25635;51.146;17.162;2023-10-08T15:07:48;3.40;;;1.00;;
38805;SDS011;25635;51.146;17.162;2023-10-08T15:10:15;3.20;;;1.20;;
38805;SDS011;25635;51.146;17.162;2023-10-08T15:12:41;4.80;;;1.10;;
38805;SDS011;25635;51.146;17.162;2023-10-08T15:15:08;5.00;;;1.50;;
38805;SDS011;25635;51.146;17.162;2023-10-08T15:17:44;3.20;;;0.90;;
38805;SDS011;25635;51.146;17.162;2023-10-08T15:20:14;2.50;;;0.60;;
38805;SDS011;25635;51.146;17.162;2023-10-08T15:22:46;2.80;;;0.90;;
38805;SDS011;25635;51.146;17.162;2023-10-08T15:25:14;2.30;;;0.70;;
38805;SDS011;25635;51.146;17.162;2023-10-08T15:27:43;2.80;;;0.90;;